Time;durP1;ratioP1;P1;durP2;ratioP2;P2;SDS_P1;SDS_P2;PMS_P1;PMS_P2;Temp;Humidity;BMP_temperature;BMP_pressure;BME280_temperature;BME280_humidity;BME280_pressure;Samples;Min_cycle;Max_cycle;Signal;HPM_P1;HPM_P2
2021/08/12 00:02:07;;;;;;;4.17;3.77;;;;;;;12.45;79.04;99952.22;1737390;81;20938;-64
2021/08/12 00:04:34;;;;;;;6.83;3.73;;;;;;;12.45;79.11;99957.45;1745227;81;20996;-64
2021/08/12 00:07:01;;;;;;;7.00;3.93;;;;;;;12.45;79.15;99953.52;1732599;81;21155;-64
2021/08/12 00:09:27;;;;;;;5.20;3.70;;;;;;;12.47;79.27;99954.30;1736252;80;21078;-64
2021/08/12 00:11:54;;;;;;;5.13;3.77;;;;;;;12.50;79.31;99961.99;1737919;81;21113;-64
2021/08/12 00:14:20;;;;;;;4.87;3.53;;;;;;;12.51;79.36;99961.06;1738017;81;21057;-63
2021/08/12 00:16:47;;;;;;;6.53;3.67;;;;;;;12.51;79.43;99958.44;1732890;80;21500;-63
2021/08/12 00:19:14;;;;;;;4.77;3.80;;;;;;;12.53;79.51;99960.53;1745119;81;20945;-64
2021/08/12 00:21:42;;;;;;;5.53;3.52;;;;;;;12.54;79.54;99960.90;1719435;82;21076;-64
2021/08/12 00:24:09;;;;;;;5.92;4.12;;;;;;;12.54;79.57;99961.73;1722102;83;20983;-64
2021/08/12 00:26:35;;;;;;;6.00;4.13;;;;;;;12.57;79.63;99967.75;1756605;80;21579;-64
2021/08/12 00:29:06;;;;;;;4.53;3.55;;;;;;;12.58;79.68;99967.69;1753993;81;20986;-64
2021/08/12 00:31:33;;;;;;;6.17;4.12;;;;;;;12.59;79.73;99961.98;1755138;80;20956;-64
2021/08/12 00:34:00;;;;;;;6.95;4.03;;;;;;;12.59;79.78;99969.38;1752705;80;23167;-64
2021/08/12 00:36:27;;;;;;;6.20;4.37;;;;;;;12.60;79.79;99968.44;1748976;79;20940;-64
2021/08/12 00:38:53;;;;;;;5.60;4.30;;;;;;;12.59;79.82;99974.61;1756643;81;21020;-64
2021/08/12 00:41:21;;;;;;;7.30;4.30;;;;;;;12.62;79.97;99971.83;1756126;81;20906;-64
2021/08/12 00:43:48;;;;;;;6.90;4.40;;;;;;;12.64;80.07;99971.30;1755082;81;22468;-64
2021/08/12 00:46:14;;;;;;;5.78;4.17;;;;;;;12.67;80.09;99963.27;1754688;80;21056;-64
2021/08/12 00:48:41;;;;;;;5.70;4.07;;;;;;;12.70;80.14;99969.66;1747789;80;20967;-64
2021/08/12 00:51:08;;;;;;;5.47;4.53;;;;;;;12.71;80.13;99973.96;1754418;81;20942;-64
2021/08/12 00:53:34;;;;;;;6.00;3.93;;;;;;;12.73;80.18;99967.34;1759839;81;21121;-64
2021/08/12 00:56:02;;;;;;;11.43;5.00;;;;;;;12.72;80.19;99974.37;1749361;81;22329;-64
2021/08/12 00:58:29;;;;;;;5.80;3.70;;;;;;;12.75;80.29;99977.30;1750509;81;21534;-64
2021/08/12 01:00:55;;;;;;;5.10;3.77;;;;;;;12.80;80.41;99975.72;1755856;80;20926;-64
2021/08/12 01:03:22;;;;;;;4.60;3.80;;;;;;;12.83;80.39;99979.52;1750568;81;21292;-64
2021/08/12 01:05:59;;;;;;;7.25;4.35;;;;;;;12.86;80.35;99974.11;1753755;81;20953;-64
2021/08/12 01:09:12;;;;;;;6.40;4.20;;;;;;;12.85;80.35;99972.40;1747390;81;20906;-63
2021/08/12 01:11:47;;;;;;;4.80;3.70;;;;;;;12.84;80.36;99972.03;1736478;81;21133;-64
2021/08/12 01:14:34;;;;;;;5.50;3.58;;;;;;;12.83;80.44;99969.03;1733662;80;21024;-63
2021/08/12 01:17:08;;;;;;;4.85;3.75;;;;;;;12.81;80.50;99970.41;1730391;82;20950;-64
2021/08/12 01:20:07;;;;;;;8.40;3.52;;;;;;;12.79;80.52;99964.87;1735405;81;20942;-64
2021/08/12 01:22:49;;;;;;;6.10;4.45;;;;;;;12.76;80.55;99968.02;1762412;79;20986;-64
2021/08/12 01:25:26;;;;;;;7.35;4.17;;;;;;;12.73;80.60;99964.25;1736317;81;21121;-64
2021/08/12 01:27:57;;;;;;;7.87;4.17;;;;;;;12.71;80.66;99960.86;1757885;81;20974;-64
2021/08/12 01:30:27;;;;;;;5.53;4.03;;;;;;;12.68;80.67;99966.27;1760087;81;21001;-64
2021/08/12 01:33:30;;;;;;;5.20;3.40;;;;;;;12.66;80.72;99960.28;1736793;82;20951;-64
2021/08/12 01:36:02;;;;;;;6.33;4.15;;;;;;;12.65;80.76;99960.34;1731714;82;20948;-64
2021/08/12 01:38:31;;;;;;;5.55;3.52;;;;;;;12.60;80.83;99957.95;1761565;80;21085;-64
2021/08/12 01:41:00;;;;;;;5.28;4.08;;;;;;;12.58;80.86;99954.59;1761453;79;20904;-63
2021/08/12 01:43:27;;;;;;;6.85;3.98;;;;;;;12.56;80.91;99956.44;1757917;79;20929;-63
2021/08/12 01:45:55;;;;;;;;;;;;;;;12.58;81.06;99967.69;1755497;81;21038;-63
2021/08/12 01:48:23;;;;;;;4.08;3.65;;;;;;;12.63;81.18;99963.06;1759821;81;20164;-63
2021/08/12 01:50:53;;;;;;;6.97;4.42;;;;;;;12.64;81.18;99959.51;1763915;80;21584;-64
2021/08/12 01:53:20;;;;;;;4.85;3.70;;;;;;;12.67;81.21;99958.50;1763498;81;20943;-64
2021/08/12 01:55:49;;;;;;;5.67;3.83;;;;;;;12.69;81.20;99967.98;1755490;80;20991;-64
2021/08/12 01:58:39;;;;;;;6.37;4.10;;;;;;;12.72;81.20;99963.88;1750272;81;20987;-64
2021/08/12 02:01:06;;;;;;;7.35;4.65;;;;;;;12.73;81.24;99961.64;1724016;81;21021;-64
2021/08/12 02:03:33;;;;;;;7.17;4.40;;;;;;;12.73;81.24;99968.19;1730100;81;21327;-64
2021/08/12 02:06:00;;;;;;;;;;;;;;;12.75;81.30;99968.96;1729289;81;21574;-64
2021/08/12 02:08:27;;;;;;;;;;;;;;;12.76;81.44;99970.64;1725624;81;20159;-64
2021/08/12 02:10:54;;;;;;;7.63;4.00;;;;;;;12.74;81.45;99972.95;1729939;81;20114;-63
2021/08/12 02:13:24;;;;;;;7.03;4.13;;;;;;;12.74;81.45;99976.45;1729090;81;20989;-64
2021/08/12 02:15:48;;;;;;;6.30;4.30;;;;;;;12.74;81.49;99976.45;1733088;81;21107;-64
2021/08/12 02:18:15;;;;;;;6.50;3.97;;;;;;;12.76;81.50;99971.11;1737940;81;20993;-64
2021/08/12 02:20:51;;;;;;;5.40;4.03;;;;;;;12.77;81.52;99978.03;1736878;81;20996;-64
2021/08/12 02:23:29;;;;;;;5.62;4.20;;;;;;;12.78;81.56;99978.91;1735751;81;20913;-63
2021/08/12 02:26:04;;;;;;;7.80;4.08;;;;;;;12.76;81.55;99981.13;1737100;81;20973;-64
2021/08/12 02:28:33;;;;;;;6.20;4.12;;;;;;;12.75;81.60;99976.82;1738907;81;21043;-64
2021/08/12 02:31:01;;;;;;;7.45;4.22;;;;;;;12.75;81.62;99977.30;1725463;81;21737;-65
2021/08/12 02:33:33;;;;;;;7.90;4.37;;;;;;;12.75;81.69;99982.53;1726042;81;20970;-64
2021/08/12 02:36:01;;;;;;;6.95;4.20;;;;;;;12.74;81.67;99981.69;1705177;83;20999;-64
2021/08/12 02:38:28;;;;;;;5.72;4.10;;;;;;;12.72;81.72;99977.45;1736448;81;20997;-64
2021/08/12 02:40:58;;;;;;;6.35;4.33;;;;;;;12.71;81.78;99973.96;1738443;81;21249;-64
2021/08/12 02:43:25;;;;;;;7.22;4.35;;;;;;;12.71;81.81;99972.66;1712050;81;21020;-63
2021/08/12 02:45:56;;;;;;;7.15;3.90;;;;;;;12.70;81.85;99982.77;1740015;81;21021;-64
2021/08/12 02:48:26;;;;;;;8.03;3.85;;;;;;;12.70;81.85;99976.68;1737110;81;20996;-64
2021/08/12 02:50:54;;;;;;;6.28;4.03;;;;;;;12.68;81.92;99976.75;1724511;81;20979;-64
2021/08/12 02:53:23;;;;;;;6.33;4.20;;;;;;;12.67;81.95;99971.60;1706185;82;22180;-63
2021/08/12 02:55:52;;;;;;;7.50;4.08;;;;;;;12.64;81.99;99975.23;1740163;81;21035;-63
2021/08/12 02:58:20;;;;;;;8.13;4.45;;;;;;;12.62;82.02;99978.37;1737162;81;20977;-63
2021/08/12 03:00:47;;;;;;;4.72;4.25;;;;;;;12.60;82.01;99976.29;1705851;81;20934;-63
2021/08/12 03:03:19;;;;;;;12.85;5.15;;;;;;;12.60;82.11;99975.45;1736479;81;21035;-63
2021/08/12 03:05:47;;;;;;;4.70;4.20;;;;;;;12.58;82.08;99976.86;1732917;81;21083;-63
2021/08/12 03:08:18;;;;;;;5.53;4.70;;;;;;;12.57;82.16;99976.45;1738025;81;21021;-63
2021/08/12 03:10:45;;;;;;;5.45;4.03;;;;;;;12.56;82.13;99971.31;1732791;81;21079;-63
2021/08/12 03:13:12;;;;;;;9.35;4.75;;;;;;;12.55;82.20;99980.95;1735925;81;21037;-63
2021/08/12 03:15:40;;;;;;;4.92;4.37;;;;;;;12.53;82.27;99977.55;1730174;81;21046;-63
2021/08/12 03:18:07;;;;;;;8.53;4.17;;;;;;;12.53;82.33;99977.55;1728432;81;21660;-63
2021/08/12 03:20:33;;;;;;;;;;;;;;;12.52;82.29;99983.26;1740976;81;21532;-63
2021/08/12 03:23:00;;;;;;;7.55;4.55;;;;;;;12.52;82.34;99982.41;1741413;81;20467;-63
2021/08/12 03:25:27;;;;;;;8.45;4.53;;;;;;;12.51;82.36;99984.63;1754822;81;21040;-64
2021/08/12 03:27:54;;;;;;;7.42;4.65;;;;;;;12.51;82.45;99993.33;1735213;81;20974;-63
2021/08/12 03:30:20;;;;;;;5.87;4.47;;;;;;;12.52;82.46;99996.82;1741196;81;21254;-63
2021/08/12 03:32:47;;;;;;;7.22;4.87;;;;;;;12.54;82.52;99989.70;1700050;83;21004;-63
2021/08/12 03:35:14;;;;;;;7.00;4.25;;;;;;;12.56;82.55;99992.27;1704962;83;22078;-63
2021/08/12 03:37:40;;;;;;;8.07;4.20;;;;;;;12.59;82.59;99991.63;1727736;81;20952;-63
2021/08/12 03:40:09;;;;;;;6.87;5.10;;;;;;;12.63;82.61;99998.86;1730868;81;20998;-63
2021/08/12 03:42:36;;;;;;;8.48;5.47;;;;;;;12.67;82.65;99999.95;1728020;81;21059;-63
2021/08/12 03:45:04;;;;;;;5.10;3.98;;;;;;;12.70;82.58;99998.48;1732798;81;21032;-63
2021/08/12 03:47:32;;;;;;;6.58;4.37;;;;;;;12.75;82.62;100006.95;1701194;82;21035;-63
2021/08/12 03:49:59;;;;;;;7.15;4.50;;;;;;;12.82;82.67;99996.15;1737288;81;21050;-63
2021/08/12 03:52:26;;;;;;;12.07;4.47;;;;;;;12.87;82.64;100002.84;1736368;81;21031;-63
2021/08/12 03:54:52;;;;;;;8.57;5.07;;;;;;;12.93;82.67;100002.98;1703500;82;21393;-63
2021/08/12 03:57:19;;;;;;;5.53;4.20;;;;;;;13.01;82.78;100003.43;1731692;81;21440;-63
2021/08/12 03:59:46;;;;;;;11.48;4.87;;;;;;;13.13;82.81;100004.08;1728034;81;20954;-63
2021/08/12 04:02:13;;;;;;;12.90;5.00;;;;;;;13.30;83.01;100002.37;1722896;81;20970;-63
2021/08/12 04:04:39;;;;;;;9.03;4.60;;;;;;;13.72;83.32;100008.81;1711644;81;21530;-63
2021/08/12 04:07:06;;;;;;;5.60;3.93;;;;;;;14.31;83.45;100012.44;1715912;81;21187;-64
2021/08/12 04:09:33;;;;;;;6.90;3.98;;;;;;;14.94;83.15;100004.33;1719964;81;21492;-64
2021/08/12 04:11:59;;;;;;;4.67;4.20;;;;;;;15.44;82.58;100005.63;1716928;81;21009;-64
2021/08/12 04:14:26;;;;;;;8.20;3.90;;;;;;;15.75;82.21;100010.77;1725457;81;20978;-64
2021/08/12 04:16:53;;;;;;;11.35;3.75;;;;;;;16.26;82.38;100011.78;1720864;81;21009;-64
2021/08/12 04:19:20;;;;;;;11.30;4.03;;;;;;;16.84;82.20;100014.13;1721628;81;22060;-64
2021/08/12 04:21:46;;;;;;;11.53;4.03;;;;;;;17.46;81.71;100016.79;1719294;82;20962;-64
2021/08/12 04:24:13;;;;;;;5.80;3.90;;;;;;;17.84;81.39;100015.84;1716633;82;20958;-64
2021/08/12 04:26:39;;;;;;;6.25;3.65;;;;;;;18.25;80.94;100014.61;1720434;82;21022;-64
2021/08/12 04:29:06;;;;;;;9.40;4.28;;;;;;;18.68;80.63;100014.00;1718064;81;21037;-64
2021/08/12 04:31:33;;;;;;;3.83;3.27;;;;;;;19.28;80.78;100015.54;1721669;81;21119;-64
2021/08/12 04:33:59;;;;;;;5.75;3.33;;;;;;;19.80;80.07;100019.36;1720183;81;21736;-65
2021/08/12 04:36:26;;;;;;;7.55;4.40;;;;;;;20.18;79.52;100018.02;1721372;82;21054;-64
2021/08/12 04:38:52;;;;;;;30.60;4.67;;;;;;;20.32;78.95;100020.36;1712387;82;20919;-64
2021/08/12 04:41:19;;;;;;;10.23;4.53;;;;;;;20.47;79.07;100026.22;1726645;82;21028;-64
2021/08/12 04:43:46;;;;;;;5.12;3.72;;;;;;;20.66;78.51;100018.88;1725557;82;21117;-65
2021/08/12 04:46:13;;;;;;;5.58;3.77;;;;;;;20.30;77.92;100034.22;1727180;82;21673;-64
2021/08/12 04:48:39;;;;;;;8.00;4.28;;;;;;;20.00;77.82;100034.96;1722402;82;20970;-64
2021/08/12 04:51:06;;;;;;;33.18;5.53;;;;;;;19.83;78.41;100035.00;1717472;81;20973;-64
2021/08/12 04:53:33;;;;;;;23.87;6.28;;;;;;;19.89;78.17;100031.02;1720167;81;20958;-64
2021/08/12 04:55:59;;;;;;;30.65;7.28;;;;;;;20.31;78.89;100031.95;1722920;82;22322;-64
2021/08/12 04:58:26;;;;;;;81.20;14.23;;;;;;;21.15;78.87;100031.95;1724441;82;21010;-65
2021/08/12 05:00:53;;;;;;;173.07;26.90;;;;;;;22.00;78.64;100027.18;1706829;82;21055;-64
2021/08/12 05:03:19;;;;;;;28.32;6.30;;;;;;;23.00;78.31;100025.03;1688659;83;21673;-65
2021/08/12 05:05:46;;;;;;;;;;;;;;;23.70;77.29;100021.91;1695778;84;21152;-65
2021/08/12 05:08:12;;;;;;;;;;;;;;;24.42;76.23;100023.28;1693754;84;21306;-64
2021/08/12 05:10:39;;;;;;;28.20;10.43;;;;;;;24.68;74.69;100022.86;1684493;84;28457;-65
2021/08/12 05:13:06;;;;;;;75.50;24.32;;;;;;;25.01;75.45;100027.05;1690910;84;21582;-65
2021/08/12 05:15:32;;;;;;;95.55;24.98;;;;;;;25.30;75.05;100032.09;1690393;84;26591;-65
2021/08/12 05:17:59;;;;;;;24.18;10.05;;;;;;;25.60;74.20;100029.38;1691505;83;21547;-65
2021/08/12 05:20:25;;;;;;;;;;;;;;;25.97;73.85;100025.48;1691578;84;21930;-64
2021/08/12 05:22:52;;;;;;;118.08;21.00;;;;;;;26.51;73.03;100022.37;1687868;84;20121;-65
2021/08/12 05:25:18;;;;;;;;;;;;;;;26.77;72.88;100030.20;1693003;84;21082;-65
2021/08/12 05:27:45;;;;;;;82.55;18.23;;;;;;;26.83;71.96;100026.86;1692423;84;20446;-65
2021/08/12 05:30:13;;;;;;;143.72;19.92;;;;;;;26.91;71.13;100024.14;1691131;84;21033;-65
2021/08/12 05:32:39;;;;;;;83.27;11.22;;;;;;;27.15;71.84;100031.80;1690848;84;21219;-66
2021/08/12 05:35:07;;;;;;;81.80;10.65;;;;;;;27.75;71.57;100037.92;1692475;84;21607;-66
2021/08/12 05:37:34;;;;;;;93.00;8.78;;;;;;;27.69;69.89;100042.66;1688699;83;20989;-66
2021/08/12 05:40:00;;;;;;;30.08;6.70;;;;;;;27.38;69.18;100042.12;1689035;84;20949;-66
2021/08/12 05:42:27;;;;;;;15.00;4.20;;;;;;;27.12;69.38;100044.20;1692803;84;21460;-66
2021/08/12 05:44:54;;;;;;;20.32;4.47;;;;;;;27.27;69.04;100055.91;1692397;84;21048;-66
2021/08/12 05:47:20;;;;;;;9.63;3.65;;;;;;;27.03;68.82;100058.61;1687822;84;21023;-66
2021/08/12 05:49:47;;;;;;;8.28;3.60;;;;;;;27.16;68.28;100058.95;1692769;83;21052;-65
2021/08/12 05:52:14;;;;;;;9.58;3.65;;;;;;;27.14;67.83;100055.57;1690998;84;20930;-66
2021/08/12 05:54:41;;;;;;;6.42;3.42;;;;;;;26.94;66.57;100065.36;1689936;84;21617;-64
2021/08/12 05:57:07;;;;;;;7.25;3.47;;;;;;;26.56;66.77;100061.02;1686244;83;21136;-64
2021/08/12 05:59:34;;;;;;;12.28;3.47;;;;;;;26.92;67.14;100059.83;1692074;84;21799;-63
2021/08/12 06:02:01;;;;;;;5.83;3.27;;;;;;;27.11;66.09;100058.59;1723095;81;20993;-64
2021/08/12 06:04:27;;;;;;;8.15;2.83;;;;;;;27.16;65.91;100062.98;1728600;81;20993;-65
2021/08/12 06:06:55;;;;;;;10.58;3.25;;;;;;;27.12;65.43;100066.98;1727404;81;20919;-64
2021/08/12 06:09:21;;;;;;;15.38;3.37;;;;;;;27.04;64.57;100068.34;1733294;81;21531;-65
2021/08/12 06:11:48;;;;;;;8.18;3.17;;;;;;;26.89;64.70;100066.36;1728722;81;21224;-65
2021/08/12 06:14:15;;;;;;;5.20;2.80;;;;;;;26.97;64.46;100069.03;1730216;81;21036;-65
2021/08/12 06:16:44;;;;;;;5.80;3.17;;;;;;;26.90;63.43;100069.36;1722702;81;20969;-64
2021/08/12 06:19:11;;;;;;;8.68;3.60;;;;;;;26.32;63.22;100078.38;1730701;81;21554;-65
2021/08/12 06:21:38;;;;;;;8.25;2.85;;;;;;;26.69;63.85;100067.70;1728215;81;21093;-64
2021/08/12 06:24:05;;;;;;;7.17;3.10;;;;;;;27.01;63.15;100069.52;1730712;81;21116;-65
2021/08/12 06:26:32;;;;;;;5.28;3.17;;;;;;;26.79;62.52;100069.20;1726515;81;21124;-65
2021/08/12 06:28:58;;;;;;;5.22;3.15;;;;;;;26.26;62.19;100075.03;1726585;81;21001;-64
2021/08/12 06:31:25;;;;;;;8.15;3.15;;;;;;;25.72;61.56;100079.89;1731551;81;20985;-65
2021/08/12 06:33:51;;;;;;;;;;;;;;;25.39;62.04;100085.92;1732124;81;21113;-63
2021/08/12 06:36:18;;;;;;;8.98;2.77;;;;;;;25.04;61.87;100082.86;1731962;81;21442;-66
2021/08/12 06:38:44;;;;;;;;;;;;;;;24.28;61.11;100096.23;1730104;81;21028;-66
2021/08/12 06:41:11;;;;;;;3.45;2.37;;;;;;;23.68;61.13;100098.02;1724962;81;20106;-66
2021/08/12 06:43:38;;;;;;;3.67;2.75;;;;;;;23.52;62.31;100099.14;1726337;81;20922;-66
2021/08/12 06:46:05;;;;;;;;;;;;;;;23.95;62.17;100086.22;1734244;81;21212;-67
2021/08/12 06:48:31;;;;;;;5.20;2.72;;;;;;;24.27;61.61;100093.70;1728246;82;20108;-67
2021/08/12 06:51:00;;;;;;;;;;;;;;;23.96;60.93;100094.05;1730783;81;20965;-68
2021/08/12 06:53:26;;;;;;;5.50;2.30;;;;;;;23.78;60.30;100091.82;1728544;81;20148;-68
2021/08/12 06:55:53;;;;;;;5.45;2.00;;;;;;;23.31;60.82;100096.71;1732790;81;20942;-66
2021/08/12 06:58:20;;;;;;;;;;;;;;;23.41;61.75;100091.33;1731418;81;21040;-66
2021/08/12 07:00:46;;;;;;;4.58;2.42;;;;;;;23.73;61.41;100090.95;1723976;81;20092;-67
2021/08/12 07:03:13;;;;;;;;;;;;;;;23.73;60.97;100086.12;1694200;83;20937;-67
2021/08/12 07:05:39;;;;;;;;;;;;;;;23.61;61.17;100092.09;1696844;83;20647;-67
2021/08/12 07:08:08;;;;;;;3.00;1.70;;;;;;;23.09;58.79;100099.72;1687923;84;20115;-68
2021/08/12 07:10:35;;;;;;;3.50;1.52;;;;;;;22.59;58.87;100091.91;1689829;84;21008;-67
2021/08/12 07:13:02;;;;;;;4.20;1.77;;;;;;;22.33;59.09;100099.95;1691434;84;20973;-67
2021/08/12 07:15:29;;;;;;;3.15;1.27;;;;;;;22.05;59.46;100103.39;1691321;84;20890;-67
2021/08/12 07:17:57;;;;;;;;;;;;;;;21.95;59.94;100101.19;1692211;84;21024;-66
2021/08/12 07:20:24;;;;;;;4.83;1.37;;;;;;;21.88;59.56;100108.88;1688476;84;20085;-66
2021/08/12 07:22:50;;;;;;;5.25;1.50;;;;;;;21.99;59.29;100099.45;1692444;84;21060;-66
2021/08/12 07:25:19;;;;;;;2.87;1.62;;;;;;;21.92;59.82;100098.31;1691786;83;20959;-66
2021/08/12 07:27:49;;;;;;;4.97;1.67;;;;;;;21.90;59.69;100101.58;1692356;83;20954;-66
2021/08/12 07:30:14;;;;;;;7.40;1.90;;;;;;;21.63;59.36;100099.06;1691896;84;20878;-66
2021/08/12 07:32:41;;;;;;;2.65;1.35;;;;;;;21.56;59.83;100097.91;1693100;84;20985;-65
2021/08/12 07:35:08;;;;;;;2.77;1.30;;;;;;;21.31;59.10;100102.31;1688118;84;21085;-66
2021/08/12 07:37:35;;;;;;;4.97;1.42;;;;;;;20.82;59.29;100106.50;1694106;83;20970;-65
2021/08/12 07:40:03;;;;;;;8.55;2.40;;;;;;;20.61;59.72;100107.30;1691361;84;20893;-67
2021/08/12 07:42:30;;;;;;;22.02;5.70;;;;;;;20.60;60.99;100110.93;1670429;84;20982;-66
2021/08/12 07:45:00;;;;;;;11.68;3.52;;;;;;;21.05;61.10;100116.00;1690797;84;20976;-66
2021/08/12 07:47:25;;;;;;;3.35;1.30;;;;;;;21.18;60.22;100119.30;1690676;84;21005;-65
2021/08/12 07:49:52;;;;;;;4.10;1.35;;;;;;;20.66;59.78;100128.98;1694759;84;21447;-66
2021/08/12 07:52:18;;;;;;;2.10;1.12;;;;;;;20.47;60.64;100127.00;1689328;83;20867;-66
2021/08/12 07:54:48;;;;;;;4.62;1.57;;;;;;;20.31;61.08;100127.89;1692952;84;21448;-65
2021/08/12 07:57:14;;;;;;;2.17;1.35;;;;;;;20.31;60.71;100120.78;1687423;84;21508;-65
2021/08/12 07:59:40;;;;;;;8.48;1.57;;;;;;;20.35;61.09;100127.50;1689680;84;21452;-66
2021/08/12 08:02:07;;;;;;;9.98;1.90;;;;;;;20.78;61.73;100121.35;1713110;81;28040;-66
2021/08/12 08:04:34;;;;;;;3.15;1.32;;;;;;;21.11;61.72;100124.77;1729142;81;20969;-67
2021/08/12 08:07:01;;;;;;;7.47;1.25;;;;;;;21.34;61.08;100123.29;1728842;81;21445;-68
2021/08/12 08:09:27;;;;;;;4.22;1.12;;;;;;;21.06;59.94;100129.66;1729901;81;20923;-67
2021/08/12 08:11:54;;;;;;;1.95;1.20;;;;;;;20.87;59.50;100132.17;1730791;81;21041;-67
2021/08/12 08:14:21;;;;;;;2.17;1.10;;;;;;;20.98;60.72;100128.13;1731019;81;20944;-66
2021/08/12 08:16:47;;;;;;;1.50;1.22;;;;;;;21.12;60.13;100134.44;1733097;81;20913;-67
2021/08/12 08:19:14;;;;;;;3.42;1.40;;;;;;;21.13;60.62;100129.47;1733067;81;20906;-66
2021/08/12 08:21:41;;;;;;;2.80;1.27;;;;;;;21.32;59.92;100133.23;1729594;81;20954;-66
2021/08/12 08:24:09;;;;;;;3.65;1.55;;;;;;;21.40;60.26;100134.77;1731430;81;21886;-68
2021/08/12 08:26:35;;;;;;;2.02;1.30;;;;;;;21.46;60.06;100132.91;1729476;81;20921;-66
2021/08/12 08:29:04;;;;;;;2.60;1.10;;;;;;;21.63;60.72;100134.94;1729610;81;20946;-65
2021/08/12 08:31:31;;;;;;;3.33;1.57;;;;;;;21.79;60.34;100130.93;1729878;81;20955;-65
2021/08/12 08:33:59;;;;;;;4.80;1.12;;;;;;;21.92;59.86;100131.53;1728307;81;21120;-66
2021/08/12 08:36:26;;;;;;;3.30;1.00;;;;;;;22.03;60.07;100135.91;1731260;81;21889;-66
2021/08/12 08:38:52;;;;;;;4.15;1.32;;;;;;;22.04;59.31;100126.48;1735435;81;21428;-68
2021/08/12 08:41:20;;;;;;;2.85;1.07;;;;;;;22.24;60.32;100131.38;1728313;81;21515;-67
2021/08/12 08:43:47;;;;;;;6.80;1.10;;;;;;;22.23;58.00;100139.48;1731505;81;21008;-66
2021/08/12 08:46:17;;;;;;;2.22;1.00;;;;;;;21.84;59.55;100140.18;1721458;81;21500;-65
2021/08/12 08:48:45;;;;;;;1.52;1.05;;;;;;;22.24;59.70;100139.86;1735479;81;21055;-65
2021/08/12 08:51:14;;;;;;;2.10;1.05;;;;;;;22.39;56.84;100134.47;1707494;81;20950;-66
2021/08/12 08:53:42;;;;;;;4.50;1.07;;;;;;;22.41;57.41;100135.67;1728003;81;20926;-65
2021/08/12 08:56:10;;;;;;;1.87;1.00;;;;;;;22.33;57.14;100140.34;1730185;81;20877;-66
2021/08/12 08:58:37;;;;;;;5.40;1.10;;;;;;;22.28;58.74;100139.92;1730229;81;21090;-66
2021/08/12 09:01:04;;;;;;;1.65;1.00;;;;;;;22.07;57.10;100139.97;1736813;81;20957;-68
2021/08/12 09:03:30;;;;;;;5.62;1.45;;;;;;;21.87;58.63;100150.58;1730401;81;20968;-68
2021/08/12 09:05:57;;;;;;;2.08;1.35;;;;;;;21.92;59.03;100144.83;1737486;81;20906;-69
2021/08/12 09:08:24;;;;;;;3.30;1.10;;;;;;;22.24;58.51;100144.68;1728459;81;21524;-69
2021/08/12 09:10:51;;;;;;;1.50;0.93;;;;;;;22.38;58.53;100155.87;1726114;81;27053;-68
2021/08/12 09:13:17;;;;;;;;;;;;;;;22.44;58.02;100158.84;1733546;81;21106;-69
2021/08/12 09:15:45;;;;;;;4.33;1.32;;;;;;;22.17;57.54;100153.30;1725059;81;20841;-69
2021/08/12 09:18:27;;;;;;;1.77;1.05;;;;;;;22.05;57.69;100150.75;1698985;81;20902;-70
2021/08/12 09:21:06;;;;;;;1.30;0.70;;;;;;;21.76;57.61;100157.78;1729270;81;21714;-70
2021/08/12 09:23:34;;;;;;;5.58;1.10;;;;;;;21.88;57.36;100156.73;1733036;81;20930;-70
2021/08/12 09:26:06;;;;;;;1.57;0.80;;;;;;;22.10;58.40;100159.17;1731472;81;21962;-68
2021/08/12 09:28:35;;;;;;;5.60;1.30;;;;;;;22.51;58.09;100163.12;1724782;81;20970;-68
2021/08/12 09:31:06;;;;;;;2.15;1.00;;;;;;;22.59;57.09;100158.44;1725468;81;20993;-67
2021/08/12 09:33:52;;;;;;;2.25;1.05;;;;;;;22.92;57.50;100155.35;1728528;81;20985;-68
2021/08/12 09:36:34;;;;;;;7.78;1.50;;;;;;;23.18;57.49;100153.45;1702385;82;21467;-68
2021/08/12 09:39:20;;;;;;;4.35;1.22;;;;;;;23.05;56.89;100156.90;1721179;81;21380;-69
2021/08/12 09:41:53;;;;;;;16.05;2.80;;;;;;;23.05;57.55;100156.90;1725371;81;20951;-69
2021/08/12 09:44:42;;;;;;;16.80;2.85;;;;;;;23.41;57.77;100154.82;1736775;81;20954;-68
2021/08/12 09:47:25;;;;;;;10.08;1.80;;;;;;;23.78;57.65;100147.81;1703597;83;20926;-69
2021/08/12 09:50:01;;;;;;;5.15;1.25;;;;;;;24.20;57.69;100154.84;1725937;81;21112;-69
2021/08/12 09:52:43;;;;;;;1.23;0.70;;;;;;;24.60;56.67;100154.95;1725675;81;22151;-68
2021/08/12 09:55:21;;;;;;;1.82;0.70;;;;;;;23.38;52.40;100164.41;1704476;82;21424;-69
2021/08/12 09:57:52;;;;;;;1.50;0.68;;;;;;;22.39;53.16;100161.08;1694480;82;21021;-69
2021/08/12 10:00:32;;;;;;;1.55;0.70;;;;;;;22.09;52.78;100173.42;1724638;81;21360;-69
2021/08/12 10:03:01;;;;;;;1.42;0.82;;;;;;;21.62;53.27;100166.95;1730806;81;21509;-69
2021/08/12 10:05:28;;;;;;;13.50;3.55;;;;;;;21.42;54.10;100173.98;1732233;81;21551;-69
2021/08/12 10:07:56;;;;;;;1.77;0.95;;;;;;;21.70;55.32;100174.27;1732291;81;21284;-69
2021/08/12 10:10:27;;;;;;;6.62;1.45;;;;;;;22.21;55.83;100171.55;1732906;81;20870;-69
2021/08/12 10:13:00;;;;;;;2.75;0.78;;;;;;;22.82;55.09;100169.15;1682302;82;20955;-69
2021/08/12 10:15:31;;;;;;;4.15;1.30;;;;;;;23.15;55.20;100158.57;1701217;82;20994;-67
2021/08/12 10:18:01;;;;;;;3.22;1.10;;;;;;;23.46;55.31;100152.53;1704300;81;21043;-68
2021/08/12 10:20:36;;;;;;;8.43;1.27;;;;;;;23.30;53.85;100168.31;1718817;81;21010;-68
2021/08/12 10:23:05;;;;;;;13.78;1.40;;;;;;;23.14;54.83;100165.39;1728073;81;20875;-68
2021/08/12 10:25:36;;;;;;;4.28;0.90;;;;;;;23.50;55.37;100172.23;1725610;81;20984;-67
2021/08/12 10:28:11;;;;;;;41.77;4.42;;;;;;;23.55;53.14;100159.31;1721967;81;20954;-67
2021/08/12 10:30:39;;;;;;;58.27;8.23;;;;;;;23.28;54.12;100160.94;1722023;81;21273;-65
2021/08/12 10:33:13;;;;;;;2.85;0.70;;;;;;;23.62;54.62;100167.09;1725254;81;20954;-65
2021/08/12 10:35:38;;;;;;;2.12;0.85;;;;;;;23.67;52.86;100163.50;1723243;81;21785;-66
2021/08/12 10:38:05;;;;;;;4.03;0.70;;;;;;;23.15;52.23;100163.06;1720063;81;21927;-65
2021/08/12 10:40:35;;;;;;;0.93;0.60;;;;;;;22.97;51.90;100165.63;1722660;81;20918;-66
2021/08/12 10:43:03;;;;;;;2.00;0.60;;;;;;;22.81;50.58;100170.14;1721083;81;21597;-66
2021/08/12 10:45:31;;;;;;;15.20;2.67;;;;;;;22.58;51.06;100168.74;1723244;81;20906;-67
2021/08/12 10:48:01;;;;;;;7.53;0.72;;;;;;;22.42;51.96;100166.12;1725951;81;21880;-66
2021/08/12 10:50:35;;;;;;;21.10;2.75;;;;;;;22.53;51.16;100173.97;1721753;81;20886;-66
2021/08/12 10:53:14;;;;;;;151.57;24.35;;;;;;;22.70;51.53;100171.61;1733799;81;20934;-66
2021/08/12 10:55:59;;;;;;;151.27;23.22;;;;;;;23.17;52.59;100162.44;1720871;81;20951;-66
2021/08/12 10:58:34;;;;;;;104.35;16.93;;;;;;;23.73;52.39;100161.61;1740592;81;21930;-65
2021/08/12 11:01:07;;;;;;;10.70;2.17;;;;;;;24.07;51.76;100175.70;1742660;81;20965;-66
2021/08/12 11:03:46;;;;;;;1.75;0.57;;;;;;;24.02;51.59;100172.13;1725312;81;20956;-66
2021/08/12 11:06:21;;;;;;;1.17;0.50;;;;;;;23.88;50.41;100170.78;1688865;83;20905;-66
2021/08/12 11:08:59;;;;;;;2.83;0.98;;;;;;;23.44;49.17;100177.17;1712190;81;22084;-66
2021/08/12 11:11:35;;;;;;;3.22;0.93;;;;;;;23.18;49.50;100173.43;1690198;83;21021;-66
2021/08/12 11:14:07;;;;;;;5.62;0.85;;;;;;;23.24;50.70;100166.19;1710347;81;20938;-66
2021/08/12 11:16:48;;;;;;;6.70;0.80;;;;;;;23.30;50.46;100174.97;1715124;81;20946;-65
2021/08/12 11:19:28;;;;;;;40.73;2.42;;;;;;;23.50;50.87;100180.22;1717763;81;20923;-66
2021/08/12 11:21:57;;;;;;;2.90;1.05;;;;;;;23.75;51.20;100172.97;1681015;84;21021;-65
2021/08/12 11:24:29;;;;;;;10.18;0.80;;;;;;;23.84;50.73;100176.08;1709724;82;21030;-65
2021/08/12 11:27:01;;;;;;;3.42;0.82;;;;;;;24.02;51.14;100177.96;1683253;84;21306;-67
2021/08/12 11:29:33;;;;;;;0.78;0.42;;;;;;;24.07;50.54;100180.53;1709387;82;21370;-68
2021/08/12 11:32:10;;;;;;;3.60;0.70;;;;;;;24.10;50.85;100178.06;1712039;82;21474;-68
2021/08/12 11:34:57;;;;;;;7.58;0.72;;;;;;;24.10;50.81;100170.06;1710444;82;21308;-68
2021/08/12 11:37:28;;;;;;;5.55;0.90;;;;;;;24.07;49.84;100178.36;1697928;81;20923;-66
2021/08/12 11:40:12;;;;;;;2.80;0.57;;;;;;;23.53;48.89;100182.63;1713452;81;21814;-66